createdAt,value
2023-02-28T00:01:22.524Z,19.86
2023-02-28T00:03:51.610Z,19.90
2023-02-28T00:06:19.480Z,19.93
2023-02-28T00:08:47.364Z,19.95
2023-02-28T00:11:15.773Z,19.97
2023-02-28T00:13:47.153Z,19.96
2023-02-28T00:16:15.969Z,19.93
2023-02-28T00:18:43.851Z,19.91
2023-02-28T00:21:12.936Z,19.90
2023-02-28T00:23:40.723Z,19.87
2023-02-28T00:26:08.399Z,19.86
2023-02-28T00:28:36.079Z,19.83
2023-02-28T00:31:03.835Z,19.82
2023-02-28T00:33:31.531Z,19.82
2023-02-28T00:36:06.489Z,19.81
2023-02-28T00:38:35.573Z,19.80
2023-02-28T00:41:05.752Z,19.80
2023-02-28T00:43:34.696Z,19.80
2023-02-28T00:46:02.546Z,19.79
2023-02-28T00:48:30.279Z,19.79
2023-02-28T00:50:57.948Z,19.78
2023-02-28T00:53:25.639Z,19.77
2023-02-28T00:55:54.661Z,19.77
2023-02-28T00:58:22.700Z,19.76
2023-02-28T01:00:50.626Z,19.77
2023-02-28T01:03:18.742Z,19.78
2023-02-28T01:05:46.733Z,19.78
2023-02-28T01:08:14.594Z,19.77
2023-02-28T01:10:42.381Z,19.77
2023-02-28T01:13:11.442Z,19.76
2023-02-28T01:15:39.253Z,19.76
2023-02-28T01:18:06.949Z,19.75
2023-02-28T01:20:35.009Z,19.74
2023-02-28T01:23:02.690Z,19.80
2023-02-28T01:25:30.412Z,19.81
2023-02-28T01:27:58.562Z,19.80
2023-02-28T01:30:27.599Z,19.80
2023-02-28T01:32:55.282Z,19.78
2023-02-28T01:35:22.992Z,19.78
2023-02-28T01:37:50.665Z,19.77
2023-02-28T01:40:18.354Z,19.78
2023-02-28T01:42:46.028Z,19.75
2023-02-28T01:45:23.304Z,19.73
2023-02-28T01:47:52.974Z,19.73
2023-02-28T01:50:22.665Z,19.72
2023-02-28T01:52:50.587Z,19.70
2023-02-28T01:55:18.984Z,19.69
2023-02-28T01:57:48.370Z,19.69
2023-02-28T02:00:17.059Z,19.70
2023-02-28T02:02:45.261Z,19.69
2023-02-28T02:05:16.116Z,19.68
2023-02-28T02:07:44.968Z,19.68
2023-02-28T02:10:15.868Z,19.67
2023-02-28T02:13:12.496Z,19.67
2023-02-28T02:15:42.831Z,19.66
2023-02-28T02:18:14.161Z,19.65
2023-02-28T02:20:59.041Z,19.64
2023-02-28T02:23:42.192Z,19.64
2023-02-28T02:26:40.179Z,19.63
2023-02-28T02:29:38.270Z,19.63
2023-02-28T02:32:44.256Z,19.63
2023-02-28T02:35:15.799Z,19.62
2023-02-28T02:37:45.283Z,19.61
2023-02-28T02:40:15.348Z,19.61
2023-02-28T02:42:46.308Z,19.61
2023-02-28T02:45:14.919Z,19.59
2023-02-28T02:47:42.588Z,19.59
2023-02-28T02:50:13.288Z,19.59
2023-02-28T02:52:44.335Z,19.57
2023-02-28T02:55:13.399Z,19.57
2023-02-28T02:57:43.886Z,19.58
2023-02-28T03:00:12.893Z,19.57
2023-02-28T03:02:40.647Z,19.56
2023-02-28T03:05:10.600Z,19.55
2023-02-28T03:07:38.290Z,19.54
2023-02-28T03:10:35.511Z,19.54
2023-02-28T03:13:13.487Z,19.54
2023-02-28T03:15:45.668Z,19.53
2023-02-28T03:18:16.054Z,19.52
2023-02-28T03:20:47.687Z,19.52
2023-02-28T03:23:17.332Z,19.51
2023-02-28T03:25:53.802Z,19.51
2023-02-28T03:28:24.280Z,19.50
2023-02-28T03:30:54.697Z,19.49
2023-02-28T03:33:24.127Z,19.50
2023-02-28T03:35:53.703Z,19.51
2023-02-28T03:38:24.352Z,19.51
2023-02-28T03:41:06.756Z,19.51
2023-02-28T03:43:36.937Z,19.50
2023-02-28T03:46:07.012Z,19.51
2023-02-28T03:48:37.238Z,19.50
2023-02-28T03:51:05.264Z,19.50
2023-02-28T03:53:34.345Z,19.50
2023-02-28T03:56:05.656Z,19.49
2023-02-28T03:58:35.383Z,19.49
2023-02-28T04:01:08.793Z,19.49
2023-02-28T04:03:37.500Z,19.47
2023-02-28T04:06:05.558Z,19.48
2023-02-28T04:08:33.240Z,19.49
2023-02-28T04:11:05.558Z,19.48
2023-02-28T04:13:33.329Z,19.47
2023-02-28T04:16:01.086Z,19.47
2023-02-28T04:18:28.745Z,19.47
2023-02-28T04:20:56.456Z,19.46
2023-02-28T04:23:24.178Z,19.48
2023-02-28T04:25:52.231Z,19.47
2023-02-28T04:28:21.286Z,19.48
2023-02-28T04:30:48.988Z,19.47
2023-02-28T04:33:16.652Z,19.48
2023-02-28T04:35:44.329Z,19.47
2023-02-28T04:38:12.040Z,19.47
2023-02-28T04:40:39.690Z,19.45
2023-02-28T04:43:07.350Z,19.45
2023-02-28T04:45:36.940Z,19.45
2023-02-28T04:48:04.751Z,19.46
2023-02-28T04:50:32.447Z,19.46
2023-02-28T04:53:00.150Z,19.46
2023-02-28T04:55:27.825Z,19.45
2023-02-28T04:57:55.491Z,19.45
2023-02-28T05:00:23.512Z,19.44
2023-02-28T05:02:52.527Z,19.43
2023-02-28T05:05:20.450Z,19.42
2023-02-28T05:07:48.127Z,19.41
2023-02-28T05:10:15.979Z,19.40
2023-02-28T05:12:43.731Z,19.39
2023-02-28T05:15:12.927Z,19.38
2023-02-28T05:17:40.586Z,19.37
2023-02-28T05:20:15.695Z,19.38
2023-02-28T05:22:44.185Z,19.38
2023-02-28T05:25:15.146Z,19.42
2023-02-28T05:27:42.892Z,19.45
2023-02-28T05:30:12.238Z,19.47
2023-02-28T05:32:40.154Z,19.48
2023-02-28T05:35:09.913Z,19.49
2023-02-28T05:37:37.584Z,19.49
2023-02-28T05:40:07.884Z,19.48
2023-02-28T05:42:35.579Z,19.52
2023-02-28T05:45:03.257Z,19.55
2023-02-28T05:47:30.926Z,19.55
2023-02-28T05:49:58.682Z,19.57
2023-02-28T05:52:27.811Z,19.59
2023-02-28T05:54:55.520Z,19.61
2023-02-28T05:57:24.858Z,19.59
2023-02-28T05:59:52.679Z,19.61
2023-02-28T06:02:20.401Z,19.60
2023-02-28T06:04:48.144Z,19.59
2023-02-28T06:07:16.275Z,19.59
2023-02-28T06:09:45.341Z,19.61
2023-02-28T06:12:13.014Z,19.61
2023-02-28T06:14:40.700Z,19.62
2023-02-28T06:17:08.394Z,19.61
2023-02-28T06:19:37.855Z,19.59
2023-02-28T06:22:05.582Z,19.56
2023-02-28T06:24:33.347Z,19.56
2023-02-28T06:27:05.870Z,19.55
2023-02-28T06:29:33.655Z,19.53
2023-02-28T06:32:01.411Z,19.53
2023-02-28T06:34:29.141Z,19.54
2023-02-28T06:36:56.787Z,19.54
2023-02-28T06:39:24.803Z,19.53
2023-02-28T06:41:56.146Z,19.53
2023-02-28T06:44:25.831Z,19.54
2023-02-28T06:46:53.797Z,19.54
2023-02-28T06:49:21.515Z,19.54
2023-02-28T06:51:49.508Z,19.53
2023-02-28T06:54:17.231Z,19.51
2023-02-28T06:56:45.083Z,19.49
2023-02-28T06:59:12.844Z,19.47
2023-02-28T07:01:42.014Z,19.47
2023-02-28T07:04:09.847Z,19.47
2023-02-28T07:06:37.660Z,19.51
2023-02-28T07:09:06.037Z,19.53
2023-02-28T07:11:33.737Z,19.55
2023-02-28T07:14:01.524Z,19.55
2023-02-28T07:16:29.387Z,19.59
2023-02-28T07:18:58.667Z,19.65
2023-02-28T07:21:26.377Z,19.66
2023-02-28T07:23:54.072Z,19.68
2023-02-28T07:26:22.324Z,19.69
2023-02-28T07:28:50.805Z,19.69
2023-02-28T07:31:19.433Z,19.71
2023-02-28T07:33:47.232Z,19.71
2023-02-28T07:36:19.038Z,19.70
2023-02-28T07:38:48.986Z,19.71
2023-02-28T07:41:17.445Z,19.71
2023-02-28T07:43:45.223Z,19.69
2023-02-28T07:46:13.694Z,19.70
2023-02-28T07:48:41.377Z,19.70
2023-02-28T07:51:09.133Z,19.69
2023-02-28T07:53:38.285Z,19.69
2023-02-28T07:56:06.769Z,19.70
2023-02-28T07:58:34.452Z,19.71
2023-02-28T08:01:07.168Z,19.70
2023-02-28T08:03:34.891Z,19.70
2023-02-28T08:06:03.378Z,19.71
2023-02-28T08:08:32.234Z,19.71
2023-02-28T08:11:02.411Z,19.69
2023-02-28T08:13:30.351Z,19.67
2023-02-28T08:15:58.167Z,19.69
2023-02-28T08:18:25.960Z,19.70
2023-02-28T08:20:53.652Z,19.70
2023-02-28T08:23:21.333Z,19.69
2023-02-28T08:25:55.146Z,19.69
2023-02-28T08:28:26.730Z,19.69
2023-02-28T08:30:54.883Z,19.70
2023-02-28T08:33:22.638Z,19.69
2023-02-28T08:35:50.338Z,19.68
2023-02-28T08:38:18.060Z,19.69
2023-02-28T08:40:45.723Z,19.70
2023-02-28T08:43:13.441Z,19.70
2023-02-28T08:45:42.529Z,19.70
2023-02-28T08:48:10.226Z,19.69
2023-02-28T08:50:37.902Z,19.71
2023-02-28T08:53:05.626Z,19.72
2023-02-28T08:55:33.307Z,19.70
2023-02-28T08:58:02.098Z,19.72
2023-02-28T09:00:30.080Z,19.73
2023-02-28T09:02:59.119Z,19.72
2023-02-28T09:05:26.854Z,19.72
2023-02-28T09:07:54.524Z,19.75
2023-02-28T09:10:22.319Z,19.75
2023-02-28T09:12:49.972Z,19.75
2023-02-28T09:15:17.704Z,19.75
2023-02-28T09:17:47.029Z,19.77
2023-02-28T09:20:17.308Z,19.77
2023-02-28T09:22:45.028Z,19.79
2023-02-28T09:25:12.732Z,19.80
2023-02-28T09:27:42.285Z,19.82
2023-02-28T09:30:11.096Z,19.83
2023-02-28T09:32:38.810Z,19.83
2023-02-28T09:35:07.481Z,19.85
2023-02-28T09:37:36.536Z,19.87
2023-02-28T09:40:05.296Z,19.86
2023-02-28T09:42:33.906Z,19.88
2023-02-28T09:45:02.039Z,19.90
2023-02-28T09:47:32.102Z,19.90
2023-02-28T09:50:00.455Z,19.92
2023-02-28T09:52:30.062Z,19.92
2023-02-28T09:55:01.378Z,19.92
2023-02-28T09:57:33.967Z,19.92
2023-02-28T10:00:10.821Z,19.92
2023-02-28T10:02:48.602Z,19.92
2023-02-28T10:05:16.793Z,19.92
2023-02-28T10:07:56.092Z,19.93
2023-02-28T10:10:26.372Z,19.93
2023-02-28T10:12:55.032Z,19.96
2023-02-28T10:15:23.879Z,19.97
2023-02-28T10:17:55.797Z,19.99
2023-02-28T10:20:34.889Z,20.01
2023-02-28T10:23:08.436Z,20.00
2023-02-28T10:25:38.454Z,20.02
2023-02-28T10:28:11.841Z,20.02
2023-02-28T10:30:40.603Z,20.03
2023-02-28T10:33:10.604Z,20.04
2023-02-28T10:35:38.328Z,20.05
2023-02-28T10:38:10.858Z,20.07
2023-02-28T10:40:39.937Z,20.09
2023-02-28T10:43:09.733Z,20.10
2023-02-28T10:45:38.203Z,20.13
2023-02-28T10:48:07.546Z,20.13
2023-02-28T10:50:39.059Z,20.15
2023-02-28T10:53:12.272Z,20.17
2023-02-28T10:55:41.427Z,20.22
2023-02-28T10:58:22.523Z,20.23
2023-02-28T11:00:50.230Z,20.23
2023-02-28T11:03:25.969Z,20.23
2023-02-28T11:05:53.646Z,20.30
2023-02-28T11:08:21.440Z,20.37
2023-02-28T11:10:56.382Z,20.39
2023-02-28T11:13:28.078Z,20.36
2023-02-28T11:15:56.685Z,20.36
2023-02-28T11:18:26.521Z,20.37
2023-02-28T11:20:55.089Z,20.37
2023-02-28T11:23:22.780Z,20.38
2023-02-28T11:25:54.551Z,20.40
2023-02-28T11:28:27.625Z,20.43
2023-02-28T11:31:02.926Z,20.45
2023-02-28T11:33:31.310Z,20.46
2023-02-28T11:36:00.887Z,20.48
2023-02-28T11:38:28.793Z,20.51
2023-02-28T11:41:05.440Z,20.53
2023-02-28T11:43:40.549Z,20.58
2023-02-28T11:46:15.229Z,20.62
2023-02-28T11:48:47.112Z,20.65
2023-02-28T11:51:17.795Z,20.66
2023-02-28T11:54:07.109Z,20.69
2023-02-28T11:56:38.464Z,20.72
2023-02-28T11:59:28.286Z,20.72
2023-02-28T12:02:06.330Z,20.73
2023-02-28T12:04:39.772Z,20.75
2023-02-28T12:07:11.632Z,20.77
2023-02-28T12:09:45.605Z,20.81
2023-02-28T12:12:23.805Z,20.82
2023-02-28T12:14:58.751Z,20.84
2023-02-28T12:17:35.229Z,20.86
2023-02-28T12:20:09.948Z,20.89
2023-02-28T12:22:39.747Z,20.90
2023-02-28T12:25:23.425Z,20.89
2023-02-28T12:27:53.970Z,20.90
2023-02-28T12:30:23.610Z,20.91
2023-02-28T12:32:51.934Z,20.93
2023-02-28T12:35:21.306Z,20.94
2023-02-28T12:37:51.809Z,20.95
2023-02-28T12:40:21.227Z,20.99
2023-02-28T12:42:50.816Z,21.00
2023-02-28T12:45:21.840Z,21.02
2023-02-28T12:47:53.045Z,21.04
2023-02-28T12:50:20.963Z,21.06
2023-02-28T12:52:53.446Z,21.09
2023-02-28T12:55:24.830Z,21.11
2023-02-28T12:57:55.473Z,21.13
2023-02-28T13:00:25.142Z,21.15
2023-02-28T13:03:03.803Z,21.20
2023-02-28T13:06:01.999Z,21.23
2023-02-28T13:08:43.473Z,21.25
2023-02-28T13:11:24.818Z,21.28
2023-02-28T13:13:59.417Z,21.32
2023-02-28T13:16:28.530Z,21.34
2023-02-28T13:19:10.256Z,21.35
2023-02-28T13:21:44.897Z,21.37
2023-02-28T13:24:12.819Z,21.41
2023-02-28T13:27:26.258Z,21.47
2023-02-28T13:29:54.252Z,21.52
2023-02-28T13:32:39.678Z,21.59
2023-02-28T13:35:17.916Z,21.65
2023-02-28T13:37:45.932Z,21.72
2023-02-28T13:40:31.574Z,21.76
2023-02-28T13:42:59.255Z,21.81
2023-02-28T13:45:28.475Z,21.88
2023-02-28T13:48:00.528Z,21.92
2023-02-28T13:50:34.317Z,21.95
2023-02-28T13:53:28.873Z,22.00
2023-02-28T13:56:00.366Z,22.04
2023-02-28T13:58:43.947Z,22.08
2023-02-28T14:01:26.546Z,22.14
2023-02-28T14:04:18.641Z,22.17
2023-02-28T14:06:49.444Z,22.18
2023-02-28T14:09:24.266Z,22.17
2023-02-28T14:11:52.352Z,22.22
2023-02-28T14:14:56.214Z,22.27
2023-02-28T14:17:23.911Z,22.35
2023-02-28T14:19:53.802Z,22.37
2023-02-28T14:22:42.278Z,22.46
2023-02-28T14:25:12.153Z,22.61
2023-02-28T14:27:43.246Z,22.72
2023-02-28T14:30:53.046Z,22.85
2023-02-28T14:33:38.619Z,22.95
2023-02-28T14:36:13.857Z,23.02
2023-02-28T14:38:44.794Z,23.08
2023-02-28T14:41:24.000Z,23.18
2023-02-28T14:43:57.215Z,23.23
2023-02-28T14:46:26.051Z,23.29
2023-02-28T14:48:53.768Z,23.33
2023-02-28T14:51:23.398Z,23.37
2023-02-28T14:53:52.944Z,23.41
2023-02-28T14:56:23.392Z,23.45
2023-02-28T14:58:54.884Z,23.48
2023-02-28T15:01:23.217Z,23.52
2023-02-28T15:03:50.917Z,23.55
2023-02-28T15:06:19.169Z,23.58
2023-02-28T15:08:48.225Z,23.61
2023-02-28T15:11:17.161Z,23.65
2023-02-28T15:13:47.114Z,23.66
2023-02-28T15:16:15.989Z,23.70
2023-02-28T15:18:47.240Z,23.72
2023-02-28T15:21:18.537Z,23.74
2023-02-28T15:23:49.384Z,23.76
2023-02-28T15:26:17.925Z,23.79
2023-02-28T15:28:45.679Z,23.80
2023-02-28T15:31:23.775Z,23.81
2023-02-28T15:33:55.410Z,23.84
2023-02-28T15:36:24.259Z,23.85
2023-02-28T15:38:55.071Z,23.88
2023-02-28T15:41:26.451Z,23.90
2023-02-28T15:44:33.043Z,23.92
2023-02-28T15:47:03.023Z,23.92
2023-02-28T15:49:33.504Z,23.91
2023-02-28T15:52:02.951Z,23.90
2023-02-28T15:54:32.674Z,23.89
2023-02-28T15:57:03.516Z,23.88
2023-02-28T15:59:31.875Z,23.87
2023-02-28T16:02:14.105Z,23.84
2023-02-28T16:04:57.007Z,23.80
2023-02-28T16:07:25.077Z,23.77
2023-02-28T16:09:54.717Z,23.76
2023-02-28T16:12:22.497Z,23.74
2023-02-28T16:14:50.499Z,23.74
2023-02-28T16:17:22.816Z,23.72
2023-02-28T16:19:50.563Z,23.71
2023-02-28T16:22:18.301Z,23.69
2023-02-28T16:24:45.990Z,23.67
2023-02-28T16:27:19.980Z,23.64
2023-02-28T16:29:47.779Z,23.62
2023-02-28T16:32:16.179Z,23.59
2023-02-28T16:34:43.976Z,23.54
2023-02-28T16:37:15.429Z,23.51
2023-02-28T16:39:43.298Z,23.46
2023-02-28T16:44:41.835Z,23.32
2023-02-28T16:47:11.032Z,23.21
2023-02-28T16:49:39.120Z,23.10
2023-02-28T16:52:07.015Z,23.00
2023-02-28T16:54:34.733Z,22.91
2023-02-28T16:57:02.439Z,22.82
2023-02-28T16:59:30.203Z,22.73
2023-02-28T17:01:59.746Z,22.66
2023-02-28T17:04:27.652Z,22.59
2023-02-28T17:06:55.458Z,22.53
2023-02-28T17:09:28.280Z,22.44
2023-02-28T17:11:58.775Z,22.39
2023-02-28T17:14:26.632Z,22.36
2023-02-28T17:16:54.372Z,22.28
2023-02-28T17:19:23.473Z,22.21
2023-02-28T17:21:51.422Z,22.16
2023-02-28T17:24:28.874Z,22.08
2023-02-28T17:26:57.879Z,22.02
2023-02-28T17:29:25.994Z,22.00
2023-02-28T17:31:53.868Z,21.96
2023-02-28T17:34:23.020Z,21.91
2023-02-28T17:36:53.001Z,21.86
2023-02-28T17:39:25.092Z,21.79
2023-02-28T17:41:53.404Z,21.73
2023-02-28T17:44:21.188Z,21.70
2023-02-28T17:46:50.089Z,21.65
2023-02-28T17:49:17.905Z,21.62
2023-02-28T17:51:47.756Z,21.58
2023-02-28T17:54:18.286Z,21.54
2023-02-28T17:56:47.041Z,21.51
2023-02-28T17:59:15.070Z,21.49
2023-02-28T18:01:42.788Z,21.46
2023-02-28T18:04:10.548Z,21.46
2023-02-28T18:06:46.936Z,21.40
2023-02-28T18:09:16.153Z,21.35
2023-02-28T18:11:45.990Z,21.30
2023-02-28T18:14:13.760Z,21.26
2023-02-28T18:16:41.454Z,21.23
2023-02-28T18:19:09.967Z,21.18
2023-02-28T18:21:37.698Z,21.14
2023-02-28T18:24:06.004Z,21.09
2023-02-28T18:26:35.144Z,21.05
2023-02-28T18:29:02.842Z,21.03
2023-02-28T18:31:32.394Z,20.99
2023-02-28T18:34:00.179Z,20.95
2023-02-28T18:36:28.451Z,20.92
2023-02-28T18:38:56.470Z,20.90
2023-02-28T18:41:24.237Z,20.87
2023-02-28T18:43:54.203Z,20.86
2023-02-28T18:46:22.256Z,20.82
2023-02-28T18:48:49.940Z,20.80
2023-02-28T18:51:18.671Z,20.78
2023-02-28T18:53:46.533Z,20.76
2023-02-28T18:56:14.843Z,20.76
2023-02-28T18:58:42.631Z,20.76
2023-02-28T19:01:18.107Z,20.72
2023-02-28T19:03:46.041Z,20.68
2023-02-28T19:06:13.828Z,20.65
2023-02-28T19:08:41.610Z,20.63
2023-02-28T19:11:09.930Z,20.64
2023-02-28T19:13:38.338Z,20.64
2023-02-28T19:16:07.090Z,20.63
2023-02-28T19:18:36.237Z,20.62
2023-02-28T19:21:03.907Z,20.62
2023-02-28T19:23:32.456Z,20.60
2023-02-28T19:26:00.159Z,20.60
2023-02-28T19:28:29.594Z,20.58
2023-02-28T19:30:57.374Z,20.57
2023-02-28T19:33:25.059Z,20.57
2023-02-28T19:35:54.134Z,20.57
2023-02-28T19:38:21.823Z,20.56
2023-02-28T19:40:49.488Z,20.52
2023-02-28T19:43:17.174Z,20.51
2023-02-28T19:45:44.848Z,20.50
2023-02-28T19:48:12.535Z,20.49
2023-02-28T19:50:41.361Z,20.46
2023-02-28T19:53:10.751Z,20.45
2023-02-28T19:55:39.563Z,20.44
2023-02-28T19:58:07.274Z,20.43
2023-02-28T20:00:34.947Z,20.42
2023-02-28T20:03:02.617Z,20.41
2023-02-28T20:05:30.303Z,20.39
2023-02-28T20:07:57.959Z,20.38
2023-02-28T20:10:27.062Z,20.37
2023-02-28T20:12:54.727Z,20.35
2023-02-28T20:15:22.389Z,20.34
2023-02-28T20:17:50.113Z,20.33
2023-02-28T20:20:17.926Z,20.31
2023-02-28T20:22:45.596Z,20.32
2023-02-28T20:25:13.273Z,20.31
2023-02-28T20:27:42.450Z,20.30
2023-02-28T20:30:10.867Z,20.28
2023-02-28T20:32:39.491Z,20.29
2023-02-28T20:35:08.638Z,20.27
2023-02-28T20:37:36.310Z,20.25
2023-02-28T20:40:04.397Z,20.25
2023-02-28T20:42:32.065Z,20.23
2023-02-28T20:45:01.164Z,20.23
2023-02-28T20:47:29.371Z,20.21
2023-02-28T20:49:57.037Z,20.20
2023-02-28T20:52:24.746Z,20.19
2023-02-28T20:54:52.891Z,20.20
2023-02-28T20:57:20.871Z,20.17
2023-02-28T20:59:48.569Z,20.15
2023-02-28T21:02:17.840Z,20.13
2023-02-28T21:04:45.667Z,20.13
2023-02-28T21:07:13.405Z,20.13
2023-02-28T21:09:41.141Z,20.12
2023-02-28T21:12:08.896Z,20.09
2023-02-28T21:14:36.642Z,20.09
2023-02-28T21:17:08.385Z,20.07
2023-02-28T21:19:37.456Z,20.06
2023-02-28T21:22:05.224Z,20.05
2023-02-28T21:24:32.995Z,20.08
2023-02-28T21:27:02.047Z,20.10
2023-02-28T21:29:29.809Z,20.09
2023-02-28T21:31:57.524Z,20.08
2023-02-28T21:34:26.874Z,20.10
2023-02-28T21:36:56.864Z,20.12
2023-02-28T21:39:29.997Z,20.13
2023-02-28T21:42:03.409Z,20.13
2023-02-28T21:44:31.551Z,20.14
2023-02-28T21:47:01.899Z,20.14
2023-02-28T21:49:29.899Z,20.13
2023-02-28T21:51:59.485Z,20.12
2023-02-28T21:54:27.294Z,20.13
2023-02-28T21:56:55.976Z,20.14
2023-02-28T21:59:23.780Z,20.11
2023-02-28T22:01:51.919Z,20.10
2023-02-28T22:04:22.367Z,20.08
2023-02-28T22:06:51.189Z,20.08
2023-02-28T22:09:20.257Z,20.08
2023-02-28T22:11:48.109Z,20.08
2023-02-28T22:14:15.832Z,20.08
2023-02-28T22:16:54.580Z,20.07
2023-02-28T22:19:23.088Z,20.06
2023-02-28T22:21:51.558Z,20.04
2023-02-28T22:24:24.082Z,20.02
2023-02-28T22:26:51.968Z,20.02
2023-02-28T22:29:19.688Z,20.02
2023-02-28T22:31:47.504Z,20.00
2023-02-28T22:34:15.311Z,19.97
2023-02-28T22:36:43.116Z,19.96
2023-02-28T22:39:10.793Z,19.96
2023-02-28T22:41:39.866Z,19.95
2023-02-28T22:44:07.991Z,19.93
2023-02-28T22:46:36.133Z,19.92
2023-02-28T22:49:07.473Z,19.91
2023-02-28T22:51:35.337Z,19.91
2023-02-28T22:54:04.311Z,19.90
2023-02-28T22:56:32.461Z,19.88
2023-02-28T22:59:02.188Z,19.90
2023-02-28T23:01:30.940Z,19.94
2023-02-28T23:03:58.825Z,19.97
2023-02-28T23:06:27.790Z,19.99
2023-02-28T23:08:57.442Z,19.98
2023-02-28T23:11:25.990Z,19.99
2023-02-28T23:13:59.536Z,19.96
2023-02-28T23:16:30.549Z,19.94
2023-02-28T23:18:58.987Z,19.97
2023-02-28T23:21:26.885Z,19.98
2023-02-28T23:23:54.660Z,19.96
2023-02-28T23:26:22.343Z,19.93
2023-02-28T23:28:50.079Z,19.94
2023-02-28T23:31:17.953Z,19.95
2023-02-28T23:33:47.013Z,19.94
2023-02-28T23:36:15.434Z,19.94
2023-02-28T23:38:44.108Z,19.86
2023-02-28T23:41:12.143Z,19.85
2023-02-28T23:43:40.605Z,19.82
2023-02-28T23:46:08.787Z,19.79
2023-02-28T23:48:36.504Z,19.79
2023-02-28T23:51:08.394Z,19.78
2023-02-28T23:53:36.244Z,19.75
2023-02-28T23:56:04.320Z,19.75
2023-02-28T23:58:32.084Z,19.74
